Time;durP1;ratioP1;P1;durP2;ratioP2;P2;SDS_P1;SDS_P2;PMS_P1;PMS_P2;Temp;Humidity;BMP_temperature;BMP_pressure;BME280_temperature;BME280_humidity;BME280_pressure;Samples;Min_cycle;Max_cycle;Signal;HPM_P1;HPM_P2
2022/06/22 00:01:29;;;;;;;20.35;7.85;;;;;;;15.19;72.71;100003.03;5103768;28;20024;-72
2022/06/22 00:03:59;;;;;;;20.75;8.75;;;;;;;15.07;72.95;99994.69;5103796;28;20467;-71
2022/06/22 00:06:39;;;;;;;22.67;8.23;;;;;;;15.13;72.90;100006.69;5103589;28;20055;-71
2022/06/22 00:09:06;;;;;;;20.60;7.50;;;;;;;15.07;73.15;99994.69;5103791;28;20079;-72
2022/06/22 00:11:33;;;;;;;26.17;7.47;;;;;;;15.15;72.86;99996.16;5085156;28;20016;-71
2022/06/22 00:14:02;;;;;;;20.33;7.38;;;;;;;15.15;72.90;99993.56;5103350;28;20024;-71
2022/06/22 00:16:36;;;;;;;17.70;6.88;;;;;;;15.11;72.83;99990.22;5103609;28;20028;-71
2022/06/22 00:19:25;;;;;;;27.83;7.45;;;;;;;15.14;72.73;99990.09;5103447;28;20028;-71
2022/06/22 00:21:51;;;;;;;25.45;7.28;;;;;;;15.17;72.53;99995.22;5103423;28;20055;-71
2022/06/22 00:24:23;;;;;;;19.25;7.03;;;;;;;15.12;72.66;99994.53;5085257;28;20024;-71
2022/06/22 00:27:00;;;;;;;20.35;7.38;;;;;;;15.12;72.51;99991.91;5103274;28;20021;-70
2022/06/22 00:29:34;;;;;;;11.63;5.72;;;;;;;15.12;72.44;99986.69;5103458;28;20055;-71
2022/06/22 00:32:13;;;;;;;18.55;6.63;;;;;;;15.11;72.49;99993.66;5103360;28;20176;-71
2022/06/22 00:34:38;;;;;;;22.08;6.75;;;;;;;15.10;72.59;99985.88;5102509;28;20028;-71
2022/06/22 00:37:11;;;;;;;20.15;7.38;;;;;;;15.10;72.70;99985.88;5085280;28;20026;-72
2022/06/22 00:39:41;;;;;;;23.10;7.03;;;;;;;15.08;72.58;99978.09;5103144;28;20020;-71
2022/06/22 00:42:15;;;;;;;24.67;6.15;;;;;;;15.10;72.50;99975.41;5103073;28;20036;-71
2022/06/22 00:45:01;;;;;;;19.05;6.30;;;;;;;15.09;72.64;99978.94;5103295;28;20028;-72
2022/06/22 00:47:39;;;;;;;20.17;6.70;;;;;;;15.08;72.65;99972.03;5103313;28;20091;-71
2022/06/22 00:50:13;;;;;;;24.08;6.82;;;;;;;15.06;72.85;99979.91;5103152;28;20059;-71
2022/06/22 00:52:45;;;;;;;18.95;6.60;;;;;;;15.02;72.71;99973.06;5103095;28;20028;-71
2022/06/22 00:55:33;;;;;;;26.42;7.32;;;;;;;15.09;72.67;99978.94;5103138;28;20016;-71
2022/06/22 00:58:13;;;;;;;26.23;8.35;;;;;;;15.06;72.78;99972.06;5103303;28;20039;-71
2022/06/22 01:00:43;;;;;;;19.15;6.45;;;;;;;15.09;72.75;99966.75;5103028;28;20053;-71
2022/06/22 01:03:30;;;;;;;15.20;6.72;;;;;;;15.06;72.83;99963.38;5103302;28;20221;-71
2022/06/22 01:06:12;;;;;;;28.63;6.63;;;;;;;15.11;72.86;99962.28;5102948;28;20032;-72
2022/06/22 01:08:46;;;;;;;19.75;7.03;;;;;;;15.07;73.07;99960.69;5103070;28;20032;-72
2022/06/22 01:14:24;;;;;;;;;;;;;;;15.11;72.99;99964.06;5103355;28;20034;-72
2022/06/22 01:16:54;;;;;;;16.85;6.78;;;;;;;15.08;72.72;99970.25;5102253;28;19908;-71
2022/06/22 01:19:49;;;;;;;21.92;6.85;;;;;;;15.10;72.70;99962.34;5084391;28;20027;-71
2022/06/22 01:22:56;;;;;;;20.88;6.72;;;;;;;15.13;72.60;99966.63;5102914;28;20020;-71
2022/06/22 01:25:48;;;;;;;29.00;7.10;;;;;;;15.10;73.07;99962.34;5102765;28;20032;-72
2022/06/22 01:28:14;;;;;;;24.15;7.18;;;;;;;15.10;73.02;99972.81;5102739;28;20054;-71
2022/06/22 01:30:43;;;;;;;17.52;6.75;;;;;;;15.11;72.95;99970.13;5102861;28;20024;-71
2022/06/22 01:33:17;;;;;;;27.38;7.20;;;;;;;15.13;72.99;99972.69;5102821;28;20028;-71
2022/06/22 01:35:42;;;;;;;21.95;6.40;;;;;;;15.13;73.24;99979.72;5102749;28;20055;-71
2022/06/22 01:38:28;;;;;;;13.90;5.78;;;;;;;15.10;72.97;99971.06;5102708;28;20028;-72
2022/06/22 01:41:19;;;;;;;25.42;6.13;;;;;;;15.05;73.05;99972.13;5102704;28;20020;-71
2022/06/22 01:44:09;;;;;;;16.88;5.70;;;;;;;15.02;73.28;99973.06;5102479;28;20043;-72
2022/06/22 01:46:47;;;;;;;15.85;6.50;;;;;;;15.06;73.17;99979.91;5105309;28;20024;-71
2022/06/22 01:49:25;;;;;;;16.58;5.80;;;;;;;15.03;73.30;99971.31;5106212;28;20024;-71
2022/06/22 01:52:01;;;;;;;17.10;5.85;;;;;;;15.04;73.29;99979.09;5106150;28;20020;-71
2022/06/22 01:54:32;;;;;;;15.05;5.38;;;;;;;15.03;73.24;99980.00;5106167;28;20032;-71
2022/06/22 01:57:06;;;;;;;21.67;5.55;;;;;;;15.04;73.43;99979.09;5105931;28;20107;-71
2022/06/22 01:59:36;;;;;;;16.65;4.97;;;;;;;15.00;73.65;99987.94;5105955;28;20511;-71
2022/06/22 02:02:09;;;;;;;21.10;5.95;;;;;;;15.00;73.58;99980.09;5087825;28;20036;-71
2022/06/22 02:04:52;;;;;;;16.90;5.80;;;;;;;15.04;73.64;99980.84;5087651;28;20024;-71
2022/06/22 02:10:42;;;;;;;19.27;5.35;;;;;;;15.01;73.21;99968.75;5105991;28;20039;-71
2022/06/22 02:13:29;;;;;;;16.30;5.10;;;;;;;14.97;73.16;99967.13;5105444;28;20028;-71
2022/06/22 02:15:56;;;;;;;18.70;5.05;;;;;;;14.95;73.34;99966.34;5105865;28;20459;-70
2022/06/22 02:18:26;;;;;;;17.50;6.15;;;;;;;14.98;73.30;99968.88;5105520;28;20032;-70
2022/06/22 02:20:52;;;;;;;13.75;4.95;;;;;;;15.01;73.05;99963.53;5105564;28;20028;-70
2022/06/22 02:23:22;;;;;;;15.23;5.70;;;;;;;15.05;73.05;99965.13;5105589;28;20027;-70
2022/06/22 02:26:10;;;;;;;13.80;5.15;;;;;;;15.01;72.81;99962.66;5105819;28;20027;-70
2022/06/22 02:28:36;;;;;;;15.55;4.80;;;;;;;14.94;73.06;99965.50;5105407;28;20481;-70
2022/06/22 02:31:02;;;;;;;12.63;4.50;;;;;;;14.94;72.94;99964.63;5105266;28;20539;-70
2022/06/22 02:33:28;;;;;;;17.45;5.63;;;;;;;14.92;73.03;99969.91;5105212;28;20039;-70
2022/06/22 02:35:55;;;;;;;16.13;4.82;;;;;;;14.93;72.92;99971.63;5105140;28;20062;-71
2022/06/22 02:38:21;;;;;;;15.25;4.50;;;;;;;14.95;72.74;99966.34;5105220;28;20053;-70
2022/06/22 02:46:20;;;;;;;13.50;4.28;;;;;;;14.85;72.89;99964.06;5105098;28;20038;-70
2022/06/22 02:48:53;;;;;;;12.13;4.43;;;;;;;14.90;72.50;99965.66;5105203;28;20073;-70
2022/06/22 02:51:24;;;;;;;12.07;4.00;;;;;;;14.87;72.31;99966.63;5104907;28;20020;-70
2022/06/22 02:53:52;;;;;;;12.20;4.35;;;;;;;14.86;72.66;99972.72;5105132;28;20020;-69
2022/06/22 02:56:22;;;;;;;11.45;3.92;;;;;;;14.89;72.44;99970.00;5104766;28;20028;-70
2022/06/22 02:58:49;;;;;;;10.63;4.15;;;;;;;14.85;72.43;99971.91;5103958;28;20042;-70
2022/06/22 03:01:22;;;;;;;13.80;4.80;;;;;;;14.83;72.40;99978.06;5104840;28;20076;-72
2022/06/22 03:03:56;;;;;;;18.38;3.95;;;;;;;14.79;72.72;99973.81;5104925;28;20077;-71
2022/06/22 03:06:28;;;;;;;18.63;4.82;;;;;;;14.77;72.58;99973.88;5086892;28;20052;-71
2022/06/22 03:08:55;;;;;;;16.73;4.53;;;;;;;14.82;72.66;99972.00;5105036;28;20061;-71
2022/06/22 03:11:21;;;;;;;14.65;4.05;;;;;;;14.86;72.49;99978.81;5104797;28;20043;-72
2022/06/22 03:13:51;;;;;;;17.58;5.00;;;;;;;14.84;72.51;99974.56;5104503;28;20480;-72
2022/06/22 03:16:31;;;;;;;13.27;4.65;;;;;;;14.83;72.40;99973.69;5086417;28;20024;-72
2022/06/22 03:19:00;;;;;;;17.73;4.43;;;;;;;14.84;72.14;99969.34;5104549;28;20020;-72
2022/06/22 03:21:27;;;;;;;12.85;4.45;;;;;;;14.87;72.38;99977.06;5104477;28;20020;-71
2022/06/22 03:24:05;;;;;;;12.02;4.07;;;;;;;14.90;72.09;99978.72;5104516;28;20106;-72
2022/06/22 03:26:39;;;;;;;16.30;4.80;;;;;;;14.89;71.95;99974.41;5104455;28;20030;-71
2022/06/22 03:29:22;;;;;;;17.80;4.60;;;;;;;14.86;72.11;99967.50;5104195;28;20024;-71
2022/06/22 03:32:02;;;;;;;12.43;4.28;;;;;;;14.85;72.19;99952.75;5086089;28;20028;-72
2022/06/22 03:34:40;;;;;;;15.57;4.90;;;;;;;14.81;72.11;99962.44;5104863;28;20020;-72
2022/06/22 03:37:17;;;;;;;12.05;3.67;;;;;;;14.85;71.82;99955.34;5104333;28;20024;-71
2022/06/22 03:39:49;;;;;;;18.02;5.68;;;;;;;14.90;71.66;99963.03;5103951;28;20024;-71
2022/06/22 03:42:49;;;;;;;16.00;5.10;;;;;;;14.89;71.50;99958.72;5103924;28;20024;-71
2022/06/22 03:45:27;;;;;;;15.25;4.45;;;;;;;14.90;71.65;99961.28;5059762;28;20036;-72
2022/06/22 03:47:59;;;;;;;17.73;4.55;;;;;;;14.93;71.30;99957.69;5103965;28;20107;-72
2022/06/22 03:50:40;;;;;;;16.98;5.43;;;;;;;14.91;71.63;99973.44;5103852;28;20020;-72
2022/06/22 03:53:17;;;;;;;19.47;5.33;;;;;;;14.95;71.31;99968.97;5104042;28;20043;-72
2022/06/22 03:55:48;;;;;;;19.65;5.32;;;;;;;15.01;71.04;99966.16;5103922;28;20683;-72
2022/06/22 03:58:14;;;;;;;18.20;5.22;;;;;;;15.03;71.19;99961.69;5103745;28;20016;-70
2022/06/22 04:00:44;;;;;;;18.75;5.45;;;;;;;15.06;70.83;99958.16;5103490;28;20070;-71
2022/06/22 04:03:11;;;;;;;15.07;4.75;;;;;;;15.05;70.96;99948.59;5103728;28;20040;-71
2022/06/22 04:05:47;;;;;;;13.60;5.03;;;;;;;14.93;70.64;99931.56;5103947;28;20057;-73
2022/06/22 04:08:23;;;;;;;15.20;5.60;;;;;;;15.11;70.50;99948.38;5103464;28;20028;-71
2022/06/22 04:11:13;;;;;;;14.27;5.03;;;;;;;15.21;70.26;99947.13;5103364;28;20028;-72
2022/06/22 04:13:45;;;;;;;20.63;5.35;;;;;;;15.20;69.84;99950.69;5103508;28;20059;-72
2022/06/22 04:16:17;;;;;;;20.35;5.50;;;;;;;15.16;69.98;99935.16;5103450;28;20091;-72
2022/06/22 04:18:53;;;;;;;17.88;5.57;;;;;;;15.27;69.77;99940.00;5103476;28;20028;-72
2022/06/22 04:21:41;;;;;;;13.55;5.18;;;;;;;15.29;69.41;99946.88;5103271;28;20020;-72
2022/06/22 04:24:21;;;;;;;18.58;6.32;;;;;;;15.32;69.39;99938.91;5103805;28;20298;-72
2022/06/22 04:26:59;;;;;;;11.48;5.00;;;;;;;15.34;69.43;99944.94;5103872;28;20024;-72
2022/06/22 04:29:40;;;;;;;17.63;5.50;;;;;;;15.40;69.42;99946.47;5103337;28;20165;-69
2022/06/22 04:32:35;;;;;;;10.75;4.85;;;;;;;15.45;69.31;99944.56;5103486;28;20160;-73
2022/06/22 04:35:25;;;;;;;12.15;5.45;;;;;;;15.55;69.36;99942.47;5103416;28;20379;-72
2022/06/22 04:37:58;;;;;;;21.38;5.32;;;;;;;15.62;69.44;99948.34;5085043;28;20413;-72
2022/06/22 04:40:46;;;;;;;16.20;5.03;;;;;;;15.70;69.01;99942.81;5102433;28;20240;-72
2022/06/22 04:43:12;;;;;;;13.07;5.00;;;;;;;15.73;68.90;99932.22;5102879;28;20016;-72
2022/06/22 04:45:42;;;;;;;13.25;4.80;;;;;;;15.76;68.59;99933.88;5103078;28;20044;-72
2022/06/22 04:48:33;;;;;;;10.18;5.00;;;;;;;15.83;68.67;99940.59;5103237;28;20016;-72
2022/06/22 04:51:01;;;;;;;15.25;4.80;;;;;;;15.96;68.25;99938.31;5103047;28;20024;-72
2022/06/22 04:53:44;;;;;;;14.65;4.38;;;;;;;16.38;68.55;99941.97;5103308;28;20032;-73
2022/06/22 04:56:11;;;;;;;;;;;;;;;17.07;68.12;99934.78;5103887;28;20026;-73
2022/06/22 04:58:45;;;;;;;15.68;4.72;;;;;;;17.38;65.19;99947.50;5103110;28;19908;-72
2022/06/22 05:01:21;;;;;;;15.30;4.65;;;;;;;17.38;64.27;99945.72;5103224;28;20399;-73
2022/06/22 05:03:48;;;;;;;13.85;4.43;;;;;;;17.18;63.56;99951.84;5103069;28;20034;-71
2022/06/22 05:06:20;;;;;;;17.30;5.65;;;;;;;16.94;63.84;99950.19;5102766;28;20080;-71
2022/06/22 05:08:54;;;;;;;10.80;4.20;;;;;;;16.79;64.09;99950.84;5084810;28;20027;-72
2022/06/22 05:11:26;;;;;;;12.63;4.65;;;;;;;16.64;64.56;99941.84;5084630;28;20078;-71
2022/06/22 05:13:55;;;;;;;9.13;3.90;;;;;;;16.52;64.61;99946.66;5102598;28;20028;-72
2022/06/22 05:16:26;;;;;;;11.90;4.55;;;;;;;16.31;65.26;99951.00;5102762;28;20020;-72
2022/06/22 05:18:52;;;;;;;8.00;3.63;;;;;;;16.25;65.59;99956.47;5102951;28;20020;-71
2022/06/22 05:21:38;;;;;;;10.32;3.90;;;;;;;16.11;65.91;99957.88;5105267;28;20023;-71
2022/06/22 05:24:11;;;;;;;14.57;4.82;;;;;;;15.90;66.14;99947.28;5107071;28;20305;-71
2022/06/22 05:26:39;;;;;;;9.68;4.13;;;;;;;15.89;66.69;99956.06;5106708;28;20043;-72
2022/06/22 05:29:18;;;;;;;11.90;4.15;;;;;;;15.85;67.28;99957.94;5106588;28;20032;-71
2022/06/22 05:31:49;;;;;;;9.80;3.97;;;;;;;15.88;67.34;99958.75;5106326;28;20105;-70
2022/06/22 05:34:19;;;;;;;7.80;3.33;;;;;;;15.93;67.27;99949.78;5106846;28;20110;-70
2022/06/22 05:36:48;;;;;;;12.55;3.95;;;;;;;15.95;67.43;99957.56;5106491;28;20081;-70
2022/06/22 05:39:14;;;;;;;11.40;4.18;;;;;;;15.97;67.27;99953.16;5106231;28;20418;-70
2022/06/22 05:41:45;;;;;;;5.28;2.85;;;;;;;16.03;67.09;99952.94;5106430;28;20023;-70
2022/06/22 05:44:15;;;;;;;4.70;2.63;;;;;;;16.02;66.61;99960.84;5106371;28;20024;-70
2022/06/22 05:46:48;;;;;;;7.10;3.03;;;;;;;16.03;67.03;99962.53;5106492;28;20083;-70
2022/06/22 05:49:16;;;;;;;9.05;3.33;;;;;;;16.04;67.29;99964.28;5106498;28;20024;-71
2022/06/22 05:51:50;;;;;;;9.20;2.95;;;;;;;16.07;67.02;99964.97;5087937;28;20103;-70
2022/06/22 05:54:52;;;;;;;8.52;3.03;;;;;;;16.02;67.43;99964.34;5106357;28;20519;-70
2022/06/22 05:57:32;;;;;;;14.85;3.38;;;;;;;16.05;67.63;99955.50;5106100;28;20035;-70
2022/06/22 06:00:06;;;;;;;7.00;3.13;;;;;;;16.26;67.29;99963.44;5105909;28;20040;-70
2022/06/22 06:02:36;;;;;;;6.78;2.65;;;;;;;16.41;67.20;99959.31;5106305;28;20023;-70
2022/06/22 06:05:21;;;;;;;7.55;2.80;;;;;;;16.43;66.57;99954.88;5105872;28;20031;-70
2022/06/22 06:07:49;;;;;;;9.85;2.83;;;;;;;16.38;66.52;99947.22;5106116;28;20344;-70
2022/06/22 06:10:30;;;;;;;8.38;2.90;;;;;;;16.50;66.42;99950.25;5105854;28;20027;-70
2022/06/22 06:13:11;;;;;;;7.38;3.17;;;;;;;16.54;66.40;99951.84;5105692;28;20023;-70
2022/06/22 06:15:39;;;;;;;14.13;3.22;;;;;;;16.59;66.04;99953.38;5105911;28;20047;-70
2022/06/22 06:18:09;;;;;;;10.60;2.50;;;;;;;16.70;65.79;99942.44;5105913;28;20097;-70
2022/06/22 06:20:39;;;;;;;3.28;2.20;;;;;;;16.85;65.61;99958.44;5105708;28;20060;-70
2022/06/22 06:23:13;;;;;;;9.20;2.75;;;;;;;17.25;65.22;99953.28;5105873;28;20107;-70
2022/06/22 06:28:51;;;;;;;3.40;1.65;;;;;;;19.63;62.97;99949.84;5105856;28;20426;-70
2022/06/22 06:31:43;;;;;;;4.90;1.40;;;;;;;20.43;57.62;99956.94;5093628;28;20130;-70
2022/06/22 06:34:15;;;;;;;;;;;;;;;20.23;53.90;99958.03;5106006;28;20020;-70
2022/06/22 06:36:52;;;;;;;6.45;2.20;;;;;;;19.68;55.96;99955.72;5105502;28;19950;-70
2022/06/22 06:39:23;;;;;;;6.03;2.35;;;;;;;19.25;56.29;99969.38;5087261;28;20435;-70
2022/06/22 06:42:03;;;;;;;5.10;1.98;;;;;;;18.86;57.44;99968.66;5105592;28;20019;-70
2022/06/22 06:44:38;;;;;;;6.75;1.90;;;;;;;18.42;58.53;99962.88;5105401;28;20030;-71
2022/06/22 06:47:10;;;;;;;8.75;2.35;;;;;;;18.09;59.43;99965.28;5105353;28;20036;-70
2022/06/22 06:49:39;;;;;;;;;;;;;;;17.93;59.88;99972.16;5105821;28;20093;-70
2022/06/22 06:52:14;;;;;;;7.20;1.70;;;;;;;17.68;60.62;99973.28;5105290;28;19912;-70
2022/06/22 06:55:14;;;;;;;2.80;1.75;;;;;;;17.51;61.59;99974.88;5105565;28;20017;-70
2022/06/22 06:58:02;;;;;;;3.97;2.00;;;;;;;17.55;61.65;99972.97;5022206;28;20060;-69
2022/06/22 07:00:29;;;;;;;3.83;1.25;;;;;;;17.63;61.70;99978.75;5022256;28;20387;-70
2022/06/22 07:02:55;;;;;;;5.13;1.50;;;;;;;17.64;61.45;99975.19;5022424;28;20060;-70
2022/06/22 07:05:23;;;;;;;2.72;1.63;;;;;;;17.78;61.33;99981.59;5022152;28;20037;-70
2022/06/22 07:07:52;;;;;;;4.07;1.40;;;;;;;17.81;60.38;99976.22;5005736;28;20116;-70
2022/06/22 07:11:16;;;;;;;6.47;2.35;;;;;;;17.84;60.79;99981.31;5022018;28;20124;-70
2022/06/22 07:13:51;;;;;;;8.20;1.88;;;;;;;17.80;60.59;99987.63;4982675;28;20047;-70
2022/06/22 07:16:22;;;;;;;4.25;2.45;;;;;;;17.54;61.02;99976.53;4983148;28;20046;-70
2022/06/22 07:18:49;;;;;;;3.75;1.80;;;;;;;17.41;61.01;99991.97;4982926;28;20039;-71
2022/06/22 07:21:22;;;;;;;4.97;1.38;;;;;;;17.18;61.87;99993.81;4982752;28;20125;-70
2022/06/22 07:23:54;;;;;;;4.72;1.45;;;;;;;17.01;62.46;99997.97;4982854;28;20103;-70
2022/06/22 07:26:49;;;;;;;2.95;1.60;;;;;;;16.84;62.83;99994.28;4982890;28;20039;-70
2022/06/22 07:29:48;;;;;;;4.68;1.45;;;;;;;16.79;63.24;99991.00;4967769;28;20546;-70
2022/06/22 07:32:39;;;;;;;5.53;1.88;;;;;;;16.85;63.37;100003.84;5040717;28;20029;-70
2022/06/22 07:35:42;;;;;;;2.47;1.33;;;;;;;16.77;63.70;100008.56;5061483;28;20061;-70
2022/06/22 07:38:10;;;;;;;3.10;1.40;;;;;;;16.66;64.62;100019.47;5061324;28;20057;-70
2022/06/22 07:40:38;;;;;;;1.85;1.35;;;;;;;16.63;64.38;100009.09;5061371;28;20028;-71
2022/06/22 07:43:04;;;;;;;3.80;1.75;;;;;;;16.51;64.26;100007.84;5060558;28;20033;-70
2022/06/22 07:45:30;;;;;;;2.38;1.30;;;;;;;16.56;64.20;100019.00;5061235;28;20103;-71
2022/06/22 07:48:10;;;;;;;2.53;1.38;;;;;;;16.51;64.31;100018.31;5061286;28;20029;-71
2022/06/22 07:50:42;;;;;;;2.05;1.20;;;;;;;16.51;64.40;100018.31;5104116;28;20035;-71
2022/06/22 07:53:36;;;;;;;4.03;1.35;;;;;;;16.55;64.35;100025.13;5103933;28;20020;-71
2022/06/22 07:56:27;;;;;;;2.25;0.98;;;;;;;16.76;64.35;100019.94;5103991;28;20055;-68
2022/06/22 07:58:57;;;;;;;2.42;1.17;;;;;;;16.79;64.22;100013.75;5103628;28;20020;-68
2022/06/22 08:01:29;;;;;;;1.77;1.25;;;;;;;16.78;63.77;100019.88;5103894;28;20122;-71
2022/06/22 08:04:18;;;;;;;2.15;0.95;;;;;;;16.66;63.99;100018.63;5104087;28;20383;-69
2022/06/22 08:06:59;;;;;;;5.32;1.40;;;;;;;16.64;64.30;100018.69;5104048;28;20024;-69
2022/06/22 08:10:03;;;;;;;4.05;1.10;;;;;;;16.73;64.54;100015.69;5103839;28;20027;-69
2022/06/22 08:12:35;;;;;;;10.45;2.00;;;;;;;17.06;63.78;100016.97;5103638;28;20031;-69
2022/06/22 08:15:06;;;;;;;2.58;0.95;;;;;;;17.44;62.89;100023.31;5103725;28;20022;-69
2022/06/22 08:17:40;;;;;;;2.78;0.80;;;;;;;17.77;62.17;100021.88;5103495;28;20027;-69
2022/06/22 08:20:06;;;;;;;1.60;0.95;;;;;;;18.13;61.60;100026.41;5103292;28;20020;-70
2022/06/22 08:22:32;;;;;;;2.58;0.90;;;;;;;18.43;59.98;100017.19;5103851;28;20365;-70
2022/06/22 08:25:00;;;;;;;5.18;1.20;;;;;;;18.72;59.66;100025.44;5103810;28;20356;-71
2022/06/22 08:27:28;;;;;;;2.67;1.00;;;;;;;18.93;59.39;100020.03;5103556;28;20529;-71
2022/06/22 08:29:54;;;;;;;5.28;1.55;;;;;;;19.06;57.97;100029.00;5103747;28;20106;-70
2022/06/22 08:32:33;;;;;;;1.98;0.90;;;;;;;19.26;57.85;100021.06;5085477;28;20024;-69
2022/06/22 08:35:07;;;;;;;3.42;1.23;;;;;;;19.43;57.38;100028.94;5103468;28;20031;-69
2022/06/22 08:37:41;;;;;;;1.95;0.80;;;;;;;19.73;56.58;100045.00;5103289;28;20501;-69
2022/06/22 08:40:35;;;;;;;4.25;1.00;;;;;;;19.72;54.94;100033.63;5103402;28;20047;-69
2022/06/22 08:43:06;;;;;;;2.58;1.30;;;;;;;19.32;55.41;100026.00;5103396;28;20044;-70
2022/06/22 08:45:37;;;;;;;6.83;1.20;;;;;;;19.05;56.49;100045.72;5103486;28;20031;-70
2022/06/22 08:48:16;;;;;;;6.07;1.20;;;;;;;18.86;57.17;100040.53;5103492;28;20042;-70
2022/06/22 08:51:15;;;;;;;3.35;1.40;;;;;;;18.65;57.61;100042.41;5103366;28;20092;-71
2022/06/22 08:53:40;;;;;;;3.40;1.20;;;;;;;18.55;58.27;100042.00;5103441;28;20036;-71
2022/06/22 08:56:08;;;;;;;8.02;1.38;;;;;;;18.43;58.94;100038.19;5105378;28;20133;-71
2022/06/22 08:58:46;;;;;;;2.40;1.30;;;;;;;18.25;59.43;100038.13;5107448;28;20051;-72
2022/06/22 09:01:15;;;;;;;5.10;1.60;;;;;;;18.02;60.27;100040.00;5065776;28;20043;-72
2022/06/22 09:03:55;;;;;;;3.17;0.80;;;;;;;17.65;61.93;100036.44;5067121;28;20059;-72
2022/06/22 09:06:23;;;;;;;3.92;0.95;;;;;;;17.35;63.51;100040.28;5067131;28;20024;-70
2022/06/22 09:08:49;;;;;;;4.22;0.82;;;;;;;17.13;64.92;100028.09;5066977;28;20025;-71
2022/06/22 09:11:36;;;;;;;5.82;1.20;;;;;;;16.96;65.84;100031.41;5065219;28;20028;-72
2022/06/22 09:14:10;;;;;;;1.25;0.77;;;;;;;16.90;66.54;100034.28;5066724;28;20021;-71
2022/06/22 09:16:52;;;;;;;3.38;0.90;;;;;;;17.05;66.97;100027.53;5066601;28;20021;-71
2022/06/22 09:19:53;;;;;;;4.70;1.20;;;;;;;17.56;66.73;100027.16;5065632;28;20024;-71
2022/06/22 09:22:34;;;;;;;3.30;0.80;;;;;;;18.11;65.45;100027.38;5065743;28;20029;-71
2022/06/22 09:25:37;;;;;;;2.53;0.93;;;;;;;18.49;63.56;100024.75;5065629;28;20017;-71
2022/06/22 09:28:34;;;;;;;2.83;0.70;;;;;;;18.90;62.35;100017.53;5064289;28;20066;-72
2022/06/22 09:31:05;;;;;;;0.90;0.40;;;;;;;19.64;61.42;100012.09;5066626;28;20405;-71
2022/06/22 09:33:59;;;;;;;2.15;0.50;;;;;;;20.60;58.01;100010.47;5066730;28;20337;-71
2022/06/22 09:36:36;;;;;;;1.55;0.57;;;;;;;21.13;55.56;100023.31;5066746;28;20029;-71
2022/06/22 09:39:08;;;;;;;5.13;0.60;;;;;;;21.24;53.10;100020.88;5066476;28;20084;-70
2022/06/22 09:42:11;;;;;;;1.10;0.65;;;;;;;20.99;52.02;100017.03;5065001;28;20116;-70
2022/06/22 09:45:07;;;;;;;2.85;0.45;;;;;;;20.65;51.24;100025.09;5060453;28;20339;-70
2022/06/22 09:47:57;;;;;;;2.13;0.45;;;;;;;20.42;51.80;100031.66;5064371;28;20029;-70
2022/06/22 09:50:40;;;;;;;0.93;0.50;;;;;;;20.06;51.62;100034.44;5065917;28;20025;-71
2022/06/22 09:53:36;;;;;;;0.85;0.50;;;;;;;19.84;52.18;100028.63;5066043;28;20037;-71
2022/06/22 09:56:23;;;;;;;1.38;0.60;;;;;;;19.68;52.51;100032.09;5065963;28;20029;-71
2022/06/22 09:59:15;;;;;;;4.32;0.80;;;;;;;19.41;53.05;100033.44;5068544;28;20021;-72
2022/06/22 10:02:06;;;;;;;3.38;0.93;;;;;;;18.96;53.85;100040.94;5106185;28;20016;-71
2022/06/22 10:04:55;;;;;;;4.35;1.65;;;;;;;18.72;54.55;100038.59;5106399;28;20441;-70
2022/06/22 10:07:33;;;;;;;4.25;1.35;;;;;;;18.41;55.33;100040.03;5105899;28;20048;-71
2022/06/22 10:10:17;;;;;;;5.60;1.55;;;;;;;18.23;55.96;100034.72;5106056;28;20028;-71
2022/06/22 10:13:03;;;;;;;4.65;2.13;;;;;;;18.06;56.62;100028.47;5105734;28;20495;-69
2022/06/22 10:15:42;;;;;;;4.38;1.23;;;;;;;17.99;57.51;100023.56;5106315;28;20095;-69
2022/06/22 10:18:43;;;;;;;5.00;1.73;;;;;;;18.03;57.43;100025.97;5105696;28;20032;-69
2022/06/22 10:21:29;;;;;;;4.35;1.30;;;;;;;18.07;57.12;100030.16;5023168;28;20069;-72
2022/06/22 10:24:30;;;;;;;3.92;1.20;;;;;;;18.05;56.51;100029.34;5006681;28;20026;-71
2022/06/22 10:27:18;;;;;;;5.10;1.58;;;;;;;18.00;56.92;100031.38;5023154;28;20060;-71
2022/06/22 10:30:24;;;;;;;4.57;1.15;;;;;;;18.16;56.88;100034.16;5022633;28;20026;-70
2022/06/22 10:33:15;;;;;;;7.93;1.23;;;;;;;18.40;56.71;100033.91;5022586;28;20038;-71
2022/06/22 10:36:06;;;;;;;2.97;1.10;;;;;;;18.61;56.33;100039.06;5022950;28;20371;-71
2022/06/22 10:39:01;;;;;;;3.72;1.10;;;;;;;18.51;55.67;100035.19;5022921;28;20045;-71
2022/06/22 10:48:05;;;;;;;3.47;1.30;;;;;;;18.02;56.99;100042.63;5022744;28;20029;-70
2022/06/22 10:50:57;;;;;;;5.18;1.38;;;;;;;17.88;56.53;100048.50;5022615;28;20042;-70
2022/06/22 10:53:54;;;;;;;3.58;1.73;;;;;;;17.74;56.44;100050.91;5022580;28;20033;-69
2022/06/22 10:56:44;;;;;;;4.25;1.20;;;;;;;17.76;56.44;100055.19;5049227;28;20035;-70
2022/06/22 10:59:30;;;;;;;2.15;1.05;;;;;;;17.87;56.63;100052.06;5104799;28;20086;-69
2022/06/22 11:02:21;;;;;;;4.18;1.30;;;;;;;18.02;56.44;100053.13;5105050;28;20053;-70
2022/06/22 11:05:11;;;;;;;3.17;1.10;;;;;;;18.23;56.21;100054.91;5104941;28;20024;-71
2022/06/22 11:07:36;;;;;;;4.32;1.08;;;;;;;18.32;55.97;100050.06;5104942;28;20052;-70
2022/06/22 11:10:24;;;;;;;4.25;1.00;;;;;;;18.46;55.73;100043.31;5104731;28;20028;-69
2022/06/22 11:13:02;;;;;;;6.30;1.48;;;;;;;18.62;55.58;100050.44;5104534;28;20369;-70
2022/06/22 11:15:42;;;;;;;4.95;1.42;;;;;;;18.88;55.16;100050.97;5104872;28;20043;-70
2022/06/22 11:18:23;;;;;;;3.95;1.52;;;;;;;19.10;54.04;100042.91;5104094;28;20074;-70
2022/06/22 11:20:48;;;;;;;3.10;1.30;;;;;;;19.23;53.97;100037.00;5104866;28;20024;-69
2022/06/22 11:23:59;;;;;;;2.75;1.05;;;;;;;19.22;53.15;100044.03;5104748;28;20080;-69
2022/06/22 11:33:19;;;;;;;6.78;1.65;;;;;;;19.03;54.93;100063.38;5104575;28;20057;-69
2022/06/22 11:36:07;;;;;;;6.47;1.60;;;;;;;18.94;55.33;100062.06;5104393;28;20027;-70
2022/06/22 11:38:44;;;;;;;9.18;1.95;;;;;;;18.81;55.63;100067.06;5104229;28;20050;-69
2022/06/22 11:41:09;;;;;;;4.40;1.65;;;;;;;18.63;55.82;100070.53;5104451;28;20036;-70
2022/06/22 11:43:56;;;;;;;7.15;1.77;;;;;;;18.37;56.53;100062.97;5103985;28;20027;-70
2022/06/22 11:46:26;;;;;;;3.65;1.60;;;;;;;18.20;57.36;100063.75;5104326;28;20031;-70
2022/06/22 11:49:11;;;;;;;5.20;1.70;;;;;;;18.20;57.30;100066.38;5104931;28;20024;-70
2022/06/22 11:52:11;;;;;;;5.32;1.90;;;;;;;18.28;57.33;100071.28;5104243;28;20035;-70
2022/06/22 11:55:14;;;;;;;5.00;1.92;;;;;;;18.29;57.14;100059.88;5103862;28;20032;-70
2022/06/22 11:58:07;;;;;;;6.07;1.90;;;;;;;18.44;57.31;100079.31;5104032;28;20039;-70
2022/06/22 12:00:55;;;;;;;9.90;1.80;;;;;;;18.42;57.08;100070.63;5103916;28;20051;-70
2022/06/22 12:04:03;;;;;;;5.32;1.77;;;;;;;18.47;56.97;100073.06;5104067;28;20024;-70
2022/06/22 12:06:55;;;;;;;4.68;1.73;;;;;;;18.75;56.98;100074.38;5103564;28;20031;-70
2022/06/22 12:09:41;;;;;;;2.72;1.38;;;;;;;19.01;56.72;100067.84;5104276;28;20070;-71
2022/06/22 12:12:35;;;;;;;6.25;1.90;;;;;;;19.08;55.72;100073.66;5103657;28;20028;-70
2022/06/22 12:15:10;;;;;;;5.75;1.90;;;;;;;19.15;55.54;100074.25;5103847;28;20020;-69
2022/06/22 12:18:05;;;;;;;8.82;2.13;;;;;;;19.06;55.23;100081.63;5085792;28;20388;-70
2022/06/22 12:20:50;;;;;;;2.55;1.50;;;;;;;18.99;55.05;100088.13;5103697;28;20020;-69
2022/06/22 12:23:28;;;;;;;4.07;1.67;;;;;;;18.95;55.40;100100.56;5089535;28;20260;-69
2022/06/22 12:26:47;;;;;;;6.53;2.10;;;;;;;18.99;55.22;100095.16;5103666;28;20047;-69
2022/06/22 12:29:16;;;;;;;4.95;1.67;;;;;;;19.11;55.17;100093.72;5020667;28;20096;-69
2022/06/22 12:31:47;;;;;;;7.45;2.00;;;;;;;19.04;55.10;100094.00;5020917;28;20034;-69
2022/06/22 12:34:25;;;;;;;8.02;1.67;;;;;;;18.83;55.48;100106.44;5020857;28;20154;-69
2022/06/22 12:36:56;;;;;;;2.38;1.30;;;;;;;18.56;55.62;100101.56;5020796;28;20030;-71
2022/06/22 12:39:44;;;;;;;5.95;1.80;;;;;;;18.56;56.27;100094.50;5021068;28;20026;-70
2022/06/22 12:42:53;;;;;;;4.85;1.67;;;;;;;18.50;56.38;100089.53;5020745;28;20057;-70
2022/06/22 12:45:56;;;;;;;3.60;1.40;;;;;;;18.51;56.42;100093.03;5020522;28;20049;-70
2022/06/22 12:48:31;;;;;;;3.88;1.88;;;;;;;18.37;55.84;100080.53;5020904;28;20030;-69